sensor_id;sensor_type;location;lat;lon;timestamp;P1;durP1;ratioP1;P2;durP2;ratioP2
63018;SDS011;49105;46.046;10.760;2023-03-03T00:02:24;3.90;;;3.80;;
63018;SDS011;49105;46.046;10.760;2023-03-03T00:04:59;4.10;;;4.00;;
63018;SDS011;49105;46.046;10.760;2023-03-03T00:07:34;4.50;;;4.40;;
63018;SDS011;49105;46.046;10.760;2023-03-03T00:10:02;4.30;;;4.20;;
63018;SDS011;49105;46.046;10.760;2023-03-03T00:12:29;3.85;;;3.75;;
63018;SDS011;49105;46.046;10.760;2023-03-03T00:17:51;3.33;;;3.22;;
63018;SDS011;49105;46.046;10.760;2023-03-03T00:20:36;3.78;;;3.67;;
63018;SDS011;49105;46.046;10.760;2023-03-03T00:23:19;3.33;;;3.22;;
63018;SDS011;49105;46.046;10.760;2023-03-03T00:25:53;4.75;;;4.65;;
63018;SDS011;49105;46.046;10.760;2023-03-03T00:28:31;3.83;;;3.72;;
63018;SDS011;49105;46.046;10.760;2023-03-03T00:31:41;3.60;;;3.50;;
63018;SDS011;49105;46.046;10.760;2023-03-03T00:36:54;3.97;;;3.88;;
63018;SDS011;49105;46.046;10.760;2023-03-03T00:39:28;3.45;;;3.35;;
63018;SDS011;49105;46.046;10.760;2023-03-03T00:41:56;4.10;;;4.00;;
63018;SDS011;49105;46.046;10.760;2023-03-03T00:55:30;3.95;;;3.85;;
63018;SDS011;49105;46.046;10.760;2023-03-03T00:58:03;4.10;;;4.00;;
63018;SDS011;49105;46.046;10.760;2023-03-03T01:00:29;4.47;;;4.38;;
63018;SDS011;49105;46.046;10.760;2023-03-03T01:03:04;4.40;;;4.30;;
63018;SDS011;49105;46.046;10.760;2023-03-03T01:05:41;3.72;;;3.63;;
63018;SDS011;49105;46.046;10.760;2023-03-03T01:11:28;3.55;;;3.45;;
63018;SDS011;49105;46.046;10.760;2023-03-03T01:13:53;3.80;;;3.70;;
63018;SDS011;49105;46.046;10.760;2023-03-03T01:16:20;4.13;;;4.03;;
63018;SDS011;49105;46.046;10.760;2023-03-03T01:18:55;3.92;;;3.83;;
63018;SDS011;49105;46.046;10.760;2023-03-03T01:21:23;3.97;;;3.88;;
63018;SDS011;49105;46.046;10.760;2023-03-03T01:23:58;4.05;;;3.95;;
63018;SDS011;49105;46.046;10.760;2023-03-03T01:26:29;3.80;;;3.70;;
63018;SDS011;49105;46.046;10.760;2023-03-03T01:31:33;4.00;;;3.90;;
63018;SDS011;49105;46.046;10.760;2023-03-03T01:34:06;3.60;;;3.50;;
63018;SDS011;49105;46.046;10.760;2023-03-03T01:39:12;3.67;;;3.58;;
63018;SDS011;49105;46.046;10.760;2023-03-03T01:41:47;3.80;;;3.60;;
63018;SDS011;49105;46.046;10.760;2023-03-03T01:44:21;4.00;;;3.90;;
63018;SDS011;49105;46.046;10.760;2023-03-03T01:46:48;4.20;;;4.10;;
63018;SDS011;49105;46.046;10.760;2023-03-03T01:51:57;4.55;;;4.45;;
63018;SDS011;49105;46.046;10.760;2023-03-03T01:54:37;4.30;;;4.20;;
63018;SDS011;49105;46.046;10.760;2023-03-03T01:57:12;4.20;;;4.10;;
63018;SDS011;49105;46.046;10.760;2023-03-03T01:59:45;3.90;;;3.80;;
63018;SDS011;49105;46.046;10.760;2023-03-03T02:02:14;3.85;;;3.75;;
63018;SDS011;49105;46.046;10.760;2023-03-03T02:04:40;4.20;;;4.10;;
63018;SDS011;49105;46.046;10.760;2023-03-03T02:07:11;4.53;;;4.43;;
63018;SDS011;49105;46.046;10.760;2023-03-03T02:09:55;3.95;;;3.85;;
63018;SDS011;49105;46.046;10.760;2023-03-03T02:12:24;3.92;;;3.83;;
63018;SDS011;49105;46.046;10.760;2023-03-03T02:15:01;4.50;;;4.40;;
63018;SDS011;49105;46.046;10.760;2023-03-03T02:17:42;3.80;;;3.70;;
63018;SDS011;49105;46.046;10.760;2023-03-03T02:22:43;4.72;;;4.63;;
63018;SDS011;49105;46.046;10.760;2023-03-03T02:28:37;3.60;;;3.50;;
63018;SDS011;49105;46.046;10.760;2023-03-03T02:31:14;4.35;;;4.25;;
63018;SDS011;49105;46.046;10.760;2023-03-03T02:33:46;3.85;;;3.75;;
63018;SDS011;49105;46.046;10.760;2023-03-03T02:36:16;4.25;;;4.15;;
63018;SDS011;49105;46.046;10.760;2023-03-03T02:41:35;4.22;;;4.13;;
63018;SDS011;49105;46.046;10.760;2023-03-03T02:46:51;4.18;;;4.07;;
63018;SDS011;49105;46.046;10.760;2023-03-03T02:49:27;3.55;;;3.45;;
63018;SDS011;49105;46.046;10.760;2023-03-03T02:51:59;4.07;;;3.97;;
63018;SDS011;49105;46.046;10.760;2023-03-03T02:54:31;4.32;;;4.22;;
63018;SDS011;49105;46.046;10.760;2023-03-03T02:56:57;4.15;;;4.05;;
63018;SDS011;49105;46.046;10.760;2023-03-03T02:59:23;4.10;;;4.00;;
63018;SDS011;49105;46.046;10.760;2023-03-03T03:01:50;3.55;;;3.45;;
63018;SDS011;49105;46.046;10.760;2023-03-03T03:04:17;4.03;;;3.92;;
63018;SDS011;49105;46.046;10.760;2023-03-03T03:06:45;3.92;;;3.83;;
63018;SDS011;49105;46.046;10.760;2023-03-03T03:09:20;4.30;;;4.20;;
63018;SDS011;49105;46.046;10.760;2023-03-03T03:11:53;4.30;;;4.20;;
63018;SDS011;49105;46.046;10.760;2023-03-03T03:14:19;4.47;;;4.38;;
63018;SDS011;49105;46.046;10.760;2023-03-03T03:16:50;4.50;;;4.40;;
63018;SDS011;49105;46.046;10.760;2023-03-03T03:21:47;4.53;;;4.18;;
63018;SDS011;49105;46.046;10.760;2023-03-03T03:24:16;5.10;;;4.85;;
63018;SDS011;49105;46.046;10.760;2023-03-03T03:26:42;4.25;;;4.15;;
63018;SDS011;49105;46.046;10.760;2023-03-03T03:29:16;4.93;;;4.75;;
63018;SDS011;49105;46.046;10.760;2023-03-03T03:31:51;4.25;;;4.15;;
63018;SDS011;49105;46.046;10.760;2023-03-03T03:34:22;3.67;;;3.58;;
63018;SDS011;49105;46.046;10.760;2023-03-03T03:37:00;4.72;;;4.53;;
63018;SDS011;49105;46.046;10.760;2023-03-03T03:39:25;4.32;;;4.22;;
63018;SDS011;49105;46.046;10.760;2023-03-03T03:42:00;3.92;;;3.83;;
63018;SDS011;49105;46.046;10.760;2023-03-03T03:44:34;4.00;;;3.90;;
63018;SDS011;49105;46.046;10.760;2023-03-03T03:47:08;4.30;;;4.20;;
63018;SDS011;49105;46.046;10.760;2023-03-03T03:49:43;4.38;;;4.28;;
63018;SDS011;49105;46.046;10.760;2023-03-03T03:52:18;3.67;;;3.58;;
63018;SDS011;49105;46.046;10.760;2023-03-03T03:54:49;4.60;;;4.50;;
63018;SDS011;49105;46.046;10.760;2023-03-03T03:57:15;4.20;;;4.10;;
63018;SDS011;49105;46.046;10.760;2023-03-03T03:59:43;4.20;;;4.10;;
63018;SDS011;49105;46.046;10.760;2023-03-03T04:02:21;3.53;;;3.42;;
63018;SDS011;49105;46.046;10.760;2023-03-03T04:04:46;3.85;;;3.75;;
63018;SDS011;49105;46.046;10.760;2023-03-03T04:07:13;4.32;;;4.22;;
63018;SDS011;49105;46.046;10.760;2023-03-03T04:09:48;4.10;;;4.00;;
63018;SDS011;49105;46.046;10.760;2023-03-03T04:12:13;3.33;;;3.22;;
63018;SDS011;49105;46.046;10.760;2023-03-03T04:14:39;3.72;;;3.63;;
63018;SDS011;49105;46.046;10.760;2023-03-03T04:17:17;3.72;;;3.63;;
63018;SDS011;49105;46.046;10.760;2023-03-03T04:19:51;3.75;;;3.65;;
63018;SDS011;49105;46.046;10.760;2023-03-03T04:25:39;3.53;;;3.43;;
63018;SDS011;49105;46.046;10.760;2023-03-03T04:28:16;3.72;;;3.63;;
63018;SDS011;49105;46.046;10.760;2023-03-03T04:30:51;3.90;;;3.80;;
63018;SDS011;49105;46.046;10.760;2023-03-03T04:33:17;3.92;;;3.83;;
63018;SDS011;49105;46.046;10.760;2023-03-03T04:35:51;4.00;;;3.90;;
63018;SDS011;49105;46.046;10.760;2023-03-03T04:38:22;3.90;;;3.80;;
63018;SDS011;49105;46.046;10.760;2023-03-03T04:40:57;3.80;;;3.70;;
63018;SDS011;49105;46.046;10.760;2023-03-03T04:43:30;3.28;;;3.17;;
63018;SDS011;49105;46.046;10.760;2023-03-03T04:45:58;4.03;;;3.92;;
63018;SDS011;49105;46.046;10.760;2023-03-03T04:48:27;3.17;;;3.08;;
63018;SDS011;49105;46.046;10.760;2023-03-03T04:50:58;3.40;;;3.30;;
63018;SDS011;49105;46.046;10.760;2023-03-03T04:53:33;3.45;;;3.35;;
63018;SDS011;49105;46.046;10.760;2023-03-03T04:56:06;3.50;;;3.40;;
63018;SDS011;49105;46.046;10.760;2023-03-03T04:58:43;3.88;;;3.78;;
63018;SDS011;49105;46.046;10.760;2023-03-03T05:01:18;3.30;;;3.20;;
63018;SDS011;49105;46.046;10.760;2023-03-03T05:03:50;2.90;;;2.80;;
63018;SDS011;49105;46.046;10.760;2023-03-03T05:06:21;2.95;;;2.85;;
63018;SDS011;49105;46.046;10.760;2023-03-03T05:11:21;3.70;;;3.60;;
63018;SDS011;49105;46.046;10.760;2023-03-03T05:13:53;4.03;;;3.92;;
63018;SDS011;49105;46.046;10.760;2023-03-03T05:16:18;4.10;;;4.00;;
63018;SDS011;49105;46.046;10.760;2023-03-03T05:18:53;3.72;;;3.63;;
63018;SDS011;49105;46.046;10.760;2023-03-03T05:21:18;3.35;;;3.25;;
63018;SDS011;49105;46.046;10.760;2023-03-03T05:23:53;3.00;;;2.90;;
63018;SDS011;49105;46.046;10.760;2023-03-03T05:26:18;3.17;;;3.08;;
63018;SDS011;49105;46.046;10.760;2023-03-03T05:28:44;3.47;;;3.38;;
63018;SDS011;49105;46.046;10.760;2023-03-03T05:31:18;3.72;;;3.63;;
63018;SDS011;49105;46.046;10.760;2023-03-03T05:33:44;4.15;;;4.05;;
63018;SDS011;49105;46.046;10.760;2023-03-03T05:36:12;3.65;;;3.55;;
63018;SDS011;49105;46.046;10.760;2023-03-03T05:38:44;4.00;;;3.90;;
63018;SDS011;49105;46.046;10.760;2023-03-03T05:43:41;2.90;;;2.80;;
63018;SDS011;49105;46.046;10.760;2023-03-03T05:46:07;3.33;;;3.22;;
63018;SDS011;49105;46.046;10.760;2023-03-03T05:48:38;3.30;;;3.20;;
63018;SDS011;49105;46.046;10.760;2023-03-03T05:53:39;3.75;;;3.65;;
63018;SDS011;49105;46.046;10.760;2023-03-03T05:56:14;3.20;;;3.10;;
63018;SDS011;49105;46.046;10.760;2023-03-03T06:02:10;3.63;;;3.43;;
63018;SDS011;49105;46.046;10.760;2023-03-03T06:04:42;3.70;;;3.60;;
63018;SDS011;49105;46.046;10.760;2023-03-03T06:07:09;3.58;;;3.47;;
63018;SDS011;49105;46.046;10.760;2023-03-03T06:09:34;4.72;;;4.40;;
63018;SDS011;49105;46.046;10.760;2023-03-03T06:12:07;4.00;;;3.90;;
63018;SDS011;49105;46.046;10.760;2023-03-03T06:14:38;4.45;;;4.15;;
63018;SDS011;49105;46.046;10.760;2023-03-03T06:17:04;4.97;;;4.75;;
63018;SDS011;49105;46.046;10.760;2023-03-03T06:19:39;2.97;;;2.88;;
63018;SDS011;49105;46.046;10.760;2023-03-03T06:22:05;3.88;;;3.78;;
63018;SDS011;49105;46.046;10.760;2023-03-03T06:24:32;4.20;;;3.50;;
63018;SDS011;49105;46.046;10.760;2023-03-03T06:26:58;3.72;;;3.50;;
63018;SDS011;49105;46.046;10.760;2023-03-03T06:29:25;3.92;;;3.72;;
63018;SDS011;49105;46.046;10.760;2023-03-03T06:31:57;4.30;;;4.20;;
63018;SDS011;49105;46.046;10.760;2023-03-03T06:34:22;4.43;;;4.32;;
63018;SDS011;49105;46.046;10.760;2023-03-03T06:36:48;4.50;;;4.40;;
63018;SDS011;49105;46.046;10.760;2023-03-03T06:39:19;3.80;;;3.70;;
63018;SDS011;49105;46.046;10.760;2023-03-03T06:41:45;3.80;;;3.70;;
63018;SDS011;49105;46.046;10.760;2023-03-03T06:44:10;4.10;;;4.00;;
63018;SDS011;49105;46.046;10.760;2023-03-03T06:46:39;3.70;;;3.60;;
63018;SDS011;49105;46.046;10.760;2023-03-03T06:49:13;3.55;;;3.45;;
63018;SDS011;49105;46.046;10.760;2023-03-03T06:51:45;3.60;;;3.50;;
63018;SDS011;49105;46.046;10.760;2023-03-03T06:54:18;4.07;;;3.97;;
63018;SDS011;49105;46.046;10.760;2023-03-03T06:56:48;3.58;;;3.47;;
63018;SDS011;49105;46.046;10.760;2023-03-03T06:59:27;3.92;;;3.83;;
63018;SDS011;49105;46.046;10.760;2023-03-03T07:01:52;3.50;;;3.40;;
63018;SDS011;49105;46.046;10.760;2023-03-03T07:07:09;3.75;;;3.65;;
63018;SDS011;49105;46.046;10.760;2023-03-03T07:09:40;3.15;;;3.05;;
63018;SDS011;49105;46.046;10.760;2023-03-03T07:12:10;3.95;;;3.80;;
63018;SDS011;49105;46.046;10.760;2023-03-03T07:14:43;3.47;;;3.38;;
63018;SDS011;49105;46.046;10.760;2023-03-03T07:17:19;3.65;;;3.55;;
63018;SDS011;49105;46.046;10.760;2023-03-03T07:19:47;4.28;;;4.18;;
63018;SDS011;49105;46.046;10.760;2023-03-03T07:22:24;3.88;;;3.67;;
63018;SDS011;49105;46.046;10.760;2023-03-03T07:25:01;3.97;;;3.78;;
63018;SDS011;49105;46.046;10.760;2023-03-03T07:27:37;4.38;;;4.18;;
63018;SDS011;49105;46.046;10.760;2023-03-03T07:32:51;4.18;;;4.07;;
63018;SDS011;49105;46.046;10.760;2023-03-03T07:37:58;4.03;;;3.92;;
63018;SDS011;49105;46.046;10.760;2023-03-03T07:45:53;4.25;;;4.15;;
63018;SDS011;49105;46.046;10.760;2023-03-03T07:48:49;3.47;;;3.38;;
63018;SDS011;49105;46.046;10.760;2023-03-03T07:51:31;5.45;;;5.20;;
63018;SDS011;49105;46.046;10.760;2023-03-03T07:56:41;4.68;;;4.47;;
63018;SDS011;49105;46.046;10.760;2023-03-03T07:59:23;4.13;;;4.03;;
63018;SDS011;49105;46.046;10.760;2023-03-03T08:01:56;4.43;;;4.13;;
63018;SDS011;49105;46.046;10.760;2023-03-03T08:04:40;3.60;;;3.50;;
63018;SDS011;49105;46.046;10.760;2023-03-03T08:07:24;3.47;;;3.38;;
63018;SDS011;49105;46.046;10.760;2023-03-03T08:14:52;3.60;;;3.50;;
63018;SDS011;49105;46.046;10.760;2023-03-03T08:17:20;3.65;;;3.55;;
63018;SDS011;49105;46.046;10.760;2023-03-03T08:19:57;3.72;;;3.63;;
63018;SDS011;49105;46.046;10.760;2023-03-03T08:22:32;4.32;;;4.22;;
63018;SDS011;49105;46.046;10.760;2023-03-03T08:25:08;4.00;;;3.90;;
63018;SDS011;49105;46.046;10.760;2023-03-03T08:27:39;4.70;;;4.50;;
63018;SDS011;49105;46.046;10.760;2023-03-03T08:30:17;3.90;;;3.80;;
63018;SDS011;49105;46.046;10.760;2023-03-03T08:32:52;3.72;;;3.63;;
63018;SDS011;49105;46.046;10.760;2023-03-03T08:35:23;4.60;;;4.43;;
63018;SDS011;49105;46.046;10.760;2023-03-03T08:37:52;4.35;;;4.15;;
63018;SDS011;49105;46.046;10.760;2023-03-03T08:40:17;4.50;;;4.35;;
63018;SDS011;49105;46.046;10.760;2023-03-03T08:42:49;4.68;;;4.50;;
63018;SDS011;49105;46.046;10.760;2023-03-03T08:45:15;4.68;;;4.53;;
63018;SDS011;49105;46.046;10.760;2023-03-03T08:47:40;4.05;;;3.95;;
63018;SDS011;49105;46.046;10.760;2023-03-03T08:50:16;4.05;;;3.88;;
63018;SDS011;49105;46.046;10.760;2023-03-03T08:52:48;3.75;;;3.65;;
63018;SDS011;49105;46.046;10.760;2023-03-03T08:55:14;4.03;;;3.92;;
63018;SDS011;49105;46.046;10.760;2023-03-03T08:57:40;3.58;;;3.47;;
63018;SDS011;49105;46.046;10.760;2023-03-03T09:00:12;5.07;;;4.75;;
63018;SDS011;49105;46.046;10.760;2023-03-03T09:02:39;3.50;;;3.40;;
63018;SDS011;49105;46.046;10.760;2023-03-03T09:05:05;4.07;;;3.97;;
63018;SDS011;49105;46.046;10.760;2023-03-03T09:07:31;3.53;;;3.42;;
63018;SDS011;49105;46.046;10.760;2023-03-03T09:10:04;4.07;;;3.97;;
63018;SDS011;49105;46.046;10.760;2023-03-03T09:15:51;3.72;;;3.63;;
63018;SDS011;49105;46.046;10.760;2023-03-03T09:18:21;3.92;;;3.83;;
63018;SDS011;49105;46.046;10.760;2023-03-03T09:20:57;3.60;;;3.50;;
63018;SDS011;49105;46.046;10.760;2023-03-03T09:23:36;3.60;;;3.50;;
63018;SDS011;49105;46.046;10.760;2023-03-03T09:28:55;3.88;;;3.78;;
63018;SDS011;49105;46.046;10.760;2023-03-03T09:31:36;3.50;;;3.40;;
63018;SDS011;49105;46.046;10.760;2023-03-03T09:36:53;3.53;;;3.42;;
63018;SDS011;49105;46.046;10.760;2023-03-03T09:39:26;3.50;;;3.40;;
63018;SDS011;49105;46.046;10.760;2023-03-03T09:42:07;3.40;;;3.30;;
63018;SDS011;49105;46.046;10.760;2023-03-03T10:04:30;2.70;;;2.60;;
63018;SDS011;49105;46.046;10.760;2023-03-03T10:17:51;1.95;;;1.95;;
63018;SDS011;49105;46.046;10.760;2023-03-03T10:25:51;2.15;;;2.15;;
63018;SDS011;49105;46.046;10.760;2023-03-03T10:28:41;1.70;;;1.70;;
63018;SDS011;49105;46.046;10.760;2023-03-03T10:39:36;3.42;;;3.30;;
63018;SDS011;49105;46.046;10.760;2023-03-03T10:42:29;1.95;;;1.95;;
63018;SDS011;49105;46.046;10.760;2023-03-03T10:51:27;1.83;;;1.83;;
63018;SDS011;49105;46.046;10.760;2023-03-03T11:02:46;1.67;;;1.67;;
63018;SDS011;49105;46.046;10.760;2023-03-03T11:05:50;1.70;;;1.70;;
63018;SDS011;49105;46.046;10.760;2023-03-03T11:08:44;1.90;;;1.90;;
63018;SDS011;49105;46.046;10.760;2023-03-03T11:16:44;2.10;;;2.10;;
63018;SDS011;49105;46.046;10.760;2023-03-03T11:28:02;2.40;;;2.30;;
63018;SDS011;49105;46.046;10.760;2023-03-03T11:33:22;1.90;;;1.90;;
63018;SDS011;49105;46.046;10.760;2023-03-03T11:41:22;1.73;;;1.73;;
63018;SDS011;49105;46.046;10.760;2023-03-03T11:44:31;2.10;;;2.10;;
63018;SDS011;49105;46.046;10.760;2023-03-03T11:52:47;2.20;;;2.20;;
63018;SDS011;49105;46.046;10.760;2023-03-03T11:55:44;2.10;;;2.10;;
63018;SDS011;49105;46.046;10.760;2023-03-03T12:14:16;2.10;;;2.10;;
63018;SDS011;49105;46.046;10.760;2023-03-03T12:16:57;2.03;;;2.03;;
63018;SDS011;49105;46.046;10.760;2023-03-03T12:22:07;1.95;;;1.95;;
63018;SDS011;49105;46.046;10.760;2023-03-03T12:28:16;2.10;;;2.10;;
63018;SDS011;49105;46.046;10.760;2023-03-03T12:35:50;2.75;;;2.65;;
63018;SDS011;49105;46.046;10.760;2023-03-03T12:46:44;2.00;;;2.00;;
63018;SDS011;49105;46.046;10.760;2023-03-03T12:49:23;2.35;;;2.25;;
63018;SDS011;49105;46.046;10.760;2023-03-03T12:55:29;2.50;;;2.45;;
63018;SDS011;49105;46.046;10.760;2023-03-03T13:06:29;2.10;;;2.10;;
63018;SDS011;49105;46.046;10.760;2023-03-03T13:09:10;2.00;;;2.00;;
63018;SDS011;49105;46.046;10.760;2023-03-03T13:11:59;2.05;;;2.05;;
63018;SDS011;49105;46.046;10.760;2023-03-03T13:14:50;2.20;;;2.20;;
63018;SDS011;49105;46.046;10.760;2023-03-03T13:19:59;2.03;;;2.03;;
63018;SDS011;49105;46.046;10.760;2023-03-03T13:22:32;1.85;;;1.85;;
63018;SDS011;49105;46.046;10.760;2023-03-03T13:25:15;2.10;;;2.10;;
63018;SDS011;49105;46.046;10.760;2023-03-03T13:27:53;2.40;;;2.40;;
63018;SDS011;49105;46.046;10.760;2023-03-03T13:30:32;1.98;;;1.98;;
63018;SDS011;49105;46.046;10.760;2023-03-03T13:33:11;2.10;;;2.10;;
63018;SDS011;49105;46.046;10.760;2023-03-03T13:35:52;1.90;;;1.90;;
63018;SDS011;49105;46.046;10.760;2023-03-03T13:38:26;2.05;;;2.05;;
63018;SDS011;49105;46.046;10.760;2023-03-03T13:41:06;2.00;;;2.00;;
63018;SDS011;49105;46.046;10.760;2023-03-03T13:43:56;2.30;;;2.20;;
63018;SDS011;49105;46.046;10.760;2023-03-03T13:46:35;1.98;;;1.98;;
63018;SDS011;49105;46.046;10.760;2023-03-03T13:51:53;1.90;;;1.90;;
63018;SDS011;49105;46.046;10.760;2023-03-03T13:57:32;2.00;;;2.00;;
63018;SDS011;49105;46.046;10.760;2023-03-03T14:06:59;2.47;;;2.30;;
63018;SDS011;49105;46.046;10.760;2023-03-03T14:20:28;1.98;;;1.98;;
63018;SDS011;49105;46.046;10.760;2023-03-03T14:26:06;2.10;;;2.10;;
63018;SDS011;49105;46.046;10.760;2023-03-03T14:28:46;2.00;;;2.00;;
63018;SDS011;49105;46.046;10.760;2023-03-03T14:31:22;1.90;;;1.90;;
63018;SDS011;49105;46.046;10.760;2023-03-03T14:36:47;1.90;;;1.90;;
63018;SDS011;49105;46.046;10.760;2023-03-03T14:39:33;1.88;;;1.88;;
63018;SDS011;49105;46.046;10.760;2023-03-03T14:42:14;1.88;;;1.88;;
63018;SDS011;49105;46.046;10.760;2023-03-03T14:44:54;2.20;;;2.10;;
63018;SDS011;49105;46.046;10.760;2023-03-03T14:47:27;1.92;;;1.92;;
63018;SDS011;49105;46.046;10.760;2023-03-03T14:49:54;2.05;;;1.98;;
63018;SDS011;49105;46.046;10.760;2023-03-03T14:52:28;1.70;;;1.70;;
63018;SDS011;49105;46.046;10.760;2023-03-03T14:55:27;1.83;;;1.83;;
63018;SDS011;49105;46.046;10.760;2023-03-03T14:57:57;2.10;;;2.00;;
63018;SDS011;49105;46.046;10.760;2023-03-03T15:00:33;2.35;;;2.25;;
63018;SDS011;49105;46.046;10.760;2023-03-03T15:03:19;2.00;;;2.00;;
63018;SDS011;49105;46.046;10.760;2023-03-03T15:05:52;1.98;;;1.98;;
63018;SDS011;49105;46.046;10.760;2023-03-03T15:08:39;2.60;;;2.53;;
63018;SDS011;49105;46.046;10.760;2023-03-03T15:14:31;2.10;;;2.10;;
63018;SDS011;49105;46.046;10.760;2023-03-03T15:16:52;3.03;;;2.90;;
63018;SDS011;49105;46.046;10.760;2023-03-03T15:24:45;1.80;;;1.80;;
63018;SDS011;49105;46.046;10.760;2023-03-03T15:30:24;1.65;;;1.65;;
63018;SDS011;49105;46.046;10.760;2023-03-03T15:41:38;1.88;;;1.88;;
63018;SDS011;49105;46.046;10.760;2023-03-03T15:44:37;2.92;;;2.80;;
63018;SDS011;49105;46.046;10.760;2023-03-03T16:09:31;1.98;;;1.98;;
63018;SDS011;49105;46.046;10.760;2023-03-03T16:12:30;1.90;;;1.90;;
63018;SDS011;49105;46.046;10.760;2023-03-03T16:23:48;1.88;;;1.88;;
63018;SDS011;49105;46.046;10.760;2023-03-03T16:26:27;1.80;;;1.80;;
63018;SDS011;49105;46.046;10.760;2023-03-03T16:32:02;1.90;;;1.90;;
63018;SDS011;49105;46.046;10.760;2023-03-03T16:34:55;1.90;;;1.90;;
63018;SDS011;49105;46.046;10.760;2023-03-03T16:37:37;1.80;;;1.80;;
63018;SDS011;49105;46.046;10.760;2023-03-03T16:45:46;2.35;;;2.25;;
63018;SDS011;49105;46.046;10.760;2023-03-03T16:51:31;2.40;;;2.33;;
63018;SDS011;49105;46.046;10.760;2023-03-03T16:54:08;2.33;;;2.15;;
63018;SDS011;49105;46.046;10.760;2023-03-03T17:02:43;2.00;;;2.00;;
63018;SDS011;49105;46.046;10.760;2023-03-03T17:05:27;2.08;;;2.08;;
63018;SDS011;49105;46.046;10.760;2023-03-03T17:19:26;1.98;;;1.98;;
63018;SDS011;49105;46.046;10.760;2023-03-03T17:24:46;2.00;;;2.00;;
63018;SDS011;49105;46.046;10.760;2023-03-03T17:27:32;2.78;;;2.67;;
63018;SDS011;49105;46.046;10.760;2023-03-03T17:43:24;2.05;;;2.05;;
63018;SDS011;49105;46.046;10.760;2023-03-03T17:46:03;2.15;;;2.15;;
63018;SDS011;49105;46.046;10.760;2023-03-03T17:48:50;2.25;;;2.15;;
63018;SDS011;49105;46.046;10.760;2023-03-03T17:57:07;2.05;;;2.05;;
63018;SDS011;49105;46.046;10.760;2023-03-03T18:11:40;2.00;;;2.00;;
63018;SDS011;49105;46.046;10.760;2023-03-03T18:17:35;1.88;;;1.88;;
63018;SDS011;49105;46.046;10.760;2023-03-03T18:20:17;2.10;;;2.10;;
63018;SDS011;49105;46.046;10.760;2023-03-03T18:22:55;2.72;;;2.63;;
63018;SDS011;49105;46.046;10.760;2023-03-03T18:25:24;2.35;;;2.35;;
63018;SDS011;49105;46.046;10.760;2023-03-03T18:28:20;1.90;;;1.90;;
63018;SDS011;49105;46.046;10.760;2023-03-03T18:30:57;1.90;;;1.90;;
63018;SDS011;49105;46.046;10.760;2023-03-03T18:33:40;2.20;;;2.20;;
63018;SDS011;49105;46.046;10.760;2023-03-03T18:36:11;2.55;;;2.53;;
63018;SDS011;49105;46.046;10.760;2023-03-03T18:38:40;2.42;;;2.33;;
63018;SDS011;49105;46.046;10.760;2023-03-03T18:41:12;1.90;;;1.90;;
63018;SDS011;49105;46.046;10.760;2023-03-03T18:43:52;1.95;;;1.95;;
63018;SDS011;49105;46.046;10.760;2023-03-03T18:49:12;1.90;;;1.90;;
63018;SDS011;49105;46.046;10.760;2023-03-03T18:51:45;1.83;;;1.83;;
63018;SDS011;49105;46.046;10.760;2023-03-03T18:57:35;1.87;;;1.87;;
63018;SDS011;49105;46.046;10.760;2023-03-03T19:00:09;2.20;;;2.20;;
63018;SDS011;49105;46.046;10.760;2023-03-03T19:02:53;2.40;;;2.30;;
63018;SDS011;49105;46.046;10.760;2023-03-03T19:05:56;2.13;;;2.13;;
63018;SDS011;49105;46.046;10.760;2023-03-03T19:16:54;3.30;;;3.10;;
63018;SDS011;49105;46.046;10.760;2023-03-03T19:19:31;2.42;;;2.33;;
63018;SDS011;49105;46.046;10.760;2023-03-03T19:27:41;2.90;;;2.70;;
63018;SDS011;49105;46.046;10.760;2023-03-03T19:47:06;3.08;;;2.97;;
63018;SDS011;49105;46.046;10.760;2023-03-03T19:50:20;2.40;;;2.30;;
63018;SDS011;49105;46.046;10.760;2023-03-03T20:14:44;2.45;;;2.42;;
63018;SDS011;49105;46.046;10.760;2023-03-03T20:46:09;2.60;;;2.50;;
63018;SDS011;49105;46.046;10.760;2023-03-03T20:48:52;2.50;;;2.50;;
63018;SDS011;49105;46.046;10.760;2023-03-03T20:56:59;2.30;;;2.30;;
63018;SDS011;49105;46.046;10.760;2023-03-03T20:59:33;2.47;;;2.47;;
63018;SDS011;49105;46.046;10.760;2023-03-03T21:04:31;2.40;;;2.40;;
63018;SDS011;49105;46.046;10.760;2023-03-03T21:07:08;3.03;;;2.92;;
63018;SDS011;49105;46.046;10.760;2023-03-03T21:12:48;2.55;;;2.55;;
63018;SDS011;49105;46.046;10.760;2023-03-03T21:18:17;3.38;;;3.28;;
63018;SDS011;49105;46.046;10.760;2023-03-03T21:20:48;3.20;;;3.10;;
63018;SDS011;49105;46.046;10.760;2023-03-03T21:23:15;3.67;;;3.58;;
63018;SDS011;49105;46.046;10.760;2023-03-03T21:28:24;2.70;;;2.60;;
63018;SDS011;49105;46.046;10.760;2023-03-03T21:33:55;3.60;;;3.50;;
63018;SDS011;49105;46.046;10.760;2023-03-03T21:36:23;3.80;;;3.70;;
63018;SDS011;49105;46.046;10.760;2023-03-03T21:42:01;3.28;;;3.17;;
63018;SDS011;49105;46.046;10.760;2023-03-03T21:46:54;3.30;;;3.20;;
63018;SDS011;49105;46.046;10.760;2023-03-03T21:49:29;3.03;;;2.92;;
63018;SDS011;49105;46.046;10.760;2023-03-03T21:51:54;3.38;;;3.28;;
63018;SDS011;49105;46.046;10.760;2023-03-03T21:54:21;3.58;;;3.47;;
63018;SDS011;49105;46.046;10.760;2023-03-03T21:56:53;3.17;;;3.08;;
63018;SDS011;49105;46.046;10.760;2023-03-03T21:59:27;3.33;;;3.17;;
63018;SDS011;49105;46.046;10.760;2023-03-03T22:02:03;3.70;;;3.53;;
63018;SDS011;49105;46.046;10.760;2023-03-03T22:04:28;2.80;;;2.70;;
63018;SDS011;49105;46.046;10.760;2023-03-03T22:07:00;2.55;;;2.55;;
63018;SDS011;49105;46.046;10.760;2023-03-03T22:12:48;7.40;;;3.50;;
63018;SDS011;49105;46.046;10.760;2023-03-03T22:15:14;3.30;;;3.20;;
63018;SDS011;49105;46.046;10.760;2023-03-03T22:17:43;3.17;;;3.08;;
63018;SDS011;49105;46.046;10.760;2023-03-03T22:20:09;3.38;;;3.28;;
63018;SDS011;49105;46.046;10.760;2023-03-03T22:22:40;3.20;;;3.10;;
63018;SDS011;49105;46.046;10.760;2023-03-03T22:25:09;3.60;;;3.40;;
63018;SDS011;49105;46.046;10.760;2023-03-03T22:27:34;3.50;;;3.40;;
63018;SDS011;49105;46.046;10.760;2023-03-03T22:30:06;3.08;;;2.97;;
63018;SDS011;49105;46.046;10.760;2023-03-03T22:32:32;3.50;;;3.40;;
63018;SDS011;49105;46.046;10.760;2023-03-03T22:35:04;3.38;;;3.28;;
63018;SDS011;49105;46.046;10.760;2023-03-03T22:37:35;3.40;;;3.30;;
63018;SDS011;49105;46.046;10.760;2023-03-03T22:40:02;3.10;;;3.00;;
63018;SDS011;49105;46.046;10.760;2023-03-03T22:42:28;3.40;;;3.30;;
63018;SDS011;49105;46.046;10.760;2023-03-03T22:44:54;3.80;;;3.70;;
63018;SDS011;49105;46.046;10.760;2023-03-03T22:47:20;3.70;;;3.60;;
63018;SDS011;49105;46.046;10.760;2023-03-03T22:49:52;3.70;;;3.60;;
63018;SDS011;49105;46.046;10.760;2023-03-03T22:52:27;3.90;;;3.80;;
63018;SDS011;49105;46.046;10.760;2023-03-03T22:54:52;3.67;;;3.58;;
63018;SDS011;49105;46.046;10.760;2023-03-03T22:57:27;3.35;;;3.25;;
63018;SDS011;49105;46.046;10.760;2023-03-03T23:00:02;3.55;;;3.45;;
63018;SDS011;49105;46.046;10.760;2023-03-03T23:02:30;3.17;;;3.08;;
63018;SDS011;49105;46.046;10.760;2023-03-03T23:05:02;3.40;;;3.30;;
63018;SDS011;49105;46.046;10.760;2023-03-03T23:07:35;3.60;;;3.50;;
63018;SDS011;49105;46.046;10.760;2023-03-03T23:10:09;4.13;;;4.00;;
63018;SDS011;49105;46.046;10.760;2023-03-03T23:15:10;3.47;;;3.38;;
63018;SDS011;49105;46.046;10.760;2023-03-03T23:17:45;3.80;;;3.70;;
63018;SDS011;49105;46.046;10.760;2023-03-03T23:22:37;3.50;;;3.40;;
63018;SDS011;49105;46.046;10.760;2023-03-03T23:25:05;3.75;;;3.58;;